La Suprema — IBIL — position and weather

sailwx.info

Track history (hours):
 
Tides and Currents Weather Stations Pressure Air Temp Water Temp Dewpoint Dewpoint Depression Visibility Wind Speed Wind Dir Waves Ship Positions

La Suprema

Last reported at 2017-Jan-18 23:33 UTC. Time now 2017-Jan-19 10:43 UTC.
Position N 38°33' E 013°08'.

Length 211 m; draft 7.3 m.

Type: Passenger vessel. MMSI: 247083700.

Date/timePositionNaut miles runAvg speedWind from/ knotsBaromVisibWave heightAir tempDewpointWater temp
2017-Jan-18 23:33N 38°33' E 013°08'2424.4
2017-Jan-18 22:34N 38°12' E 013°24'5 4.8
2017-Jan-18 21:31N 38°08' E 013°22'0 0.0
2017-Jan-18 20:31N 38°08' E 013°22'0 0.0
2017-Jan-18 19:31N 38°08' E 013°22'0 0.0
2017-Jan-18 18:33N 38°08' E 013°22'0 0.2
2017-Jan-18 17:33N 38°08' E 013°22'1211.7
2017-Jan-18 16:34N 38°19' E 013°19'29023.8
2017-Jan-18 04:21N 42°34' E 010°16'4324.0
2017-Jan-18 02:34N 43°13' E 009°53'2524.5
2017-Jan-18 01:34N 43°34' E 009°35'2524.8
2017-Jan-18 00:33N 43°55' E 009°16'2525.1
2017-Jan-17 23:34N 44°17' E 009°00'8 7.8
2017-Jan-17 22:29N 44°25' E 008°55'0 0.0
2017-Jan-17 21:32N 44°25' E 008°55'0 0.0
2017-Jan-17 20:32N 44°25' E 008°55'0 0.0
2017-Jan-17 19:22N 44°25' E 008°55'1 1.1
2017-Jan-17 18:34N 44°24' E 008°56'1918.7
2017-Jan-17 17:33N 44°08' E 009°10'2221.6
2017-Jan-17 16:34N 43°49' E 009°25'2221.7
2017-Jan-17 15:34N 43°31' E 009°40'2322.8
2017-Jan-17 14:33N 43°13' E 009°59'33323.7
2017-Jan-17 00:33N 38°17' E 013°21'10 4.4
2017-Jan-16 22:21N 38°08' E 013°22'0 0.0
2017-Jan-16 21:26N 38°08' E 013°22'0 0.0
2017-Jan-16 20:33N 38°08' E 013°22'7 6.7
2017-Jan-16 19:33N 38°14' E 013°23'10812.9
2017-Jan-16 11:11N 36°28' E 013°46'1523.9
2017-Jan-16 10:34N 36°19' E 014°01'2423.6
2017-Jan-16 09:34N 36°05' E 014°24'15911.0
2017-Jan-15 19:05N 38°11' E 012°24'3019.6
2017-Jan-15 17:33N 38°15' E 013°01'1818.2
2017-Jan-15 16:33N 38°12' E 013°24'5 4.8
2017-Jan-15 15:33N 38°08' E 013°22'0 0.0
2017-Jan-15 14:33N 38°08' E 013°22'0 0.3
2017-Jan-15 13:34N 38°08' E 013°22'1716.8
2017-Jan-15 12:31N 38°24' E 013°15'32625.2
2017-Jan-14 23:33N 43°05' E 009°35'2525.1
2017-Jan-14 22:34N 43°29' E 009°26'2525.1
2017-Jan-14 21:34N 43°52' E 009°12'2525.2
2017-Jan-14 20:34N 44°16' E 008°60'10 9.0
2017-Jan-14 19:30N 44°25' E 008°55'0 0.0
2017-Jan-14 18:32N 44°25' E 008°55'0 0.0
2017-Jan-14 17:29N 44°25' E 008°55'0 0.0
2017-Jan-14 16:25N 44°25' E 008°55'0 0.0
2017-Jan-14 15:31N 44°25' E 008°55'3 3.4
2017-Jan-14 14:33N 44°22' E 008°58'2221.8
2017-Jan-14 13:34N 44°02' E 009°09'2222.2
2017-Jan-14 12:33N 43°41' E 009°20'2221.8
2017-Jan-14 11:33N 43°20' E 009°30'33323.8
2017-Jan-13 21:33N 38°29' E 013°03'2423.9
2017-Jan-13 20:34N 38°12' E 013°24'4 4.4
2017-Jan-13 19:33N 38°08' E 013°22'0 0.0
2017-Jan-13 18:33N 38°08' E 013°22'0 0.0
2017-Jan-13 17:33N 38°08' E 013°22'0 0.0
2017-Jan-13 16:33N 38°08' E 013°22'0 0.0
2017-Jan-13 15:33N 38°08' E 013°22'0 0.0
2017-Jan-13 14:33N 38°08' E 013°22'0 0.0
2017-Jan-13 13:33N 38°08' E 013°22'0 0.0
2017-Jan-13 12:33N 38°08' E 013°22'0 0.0
2017-Jan-13 11:33N 38°08' E 013°22'0 0.0
2017-Jan-13 10:33N 38°08' E 013°22'0 0.0
2017-Jan-13 09:33N 38°08' E 013°22'0 0.0
2017-Jan-13 08:33N 38°08' E 013°22'0 0.0
2017-Jan-13 07:33N 38°08' E 013°22'0 0.0
2017-Jan-13 06:33N 38°08' E 013°22'0 0.0
2017-Jan-13 05:33N 38°08' E 013°22'0 0.0
2017-Jan-13 04:33N 38°08' E 013°22'0 0.0
2017-Jan-13 03:33N 38°08' E 013°22'0 0.0
2017-Jan-13 02:33N 38°08' E 013°22'0 0.0
2017-Jan-13 01:33N 38°08' E 013°22'0 0.0
2017-Jan-13 00:33N 38°08' E 013°22'0 0.0
2017-Jan-12 23:33N 38°08' E 013°22'0 0.0
2017-Jan-12 22:33N 38°08' E 013°22'0 0.0
2017-Jan-12 21:33N 38°08' E 013°22'0 0.0
2017-Jan-12 20:33N 38°08' E 013°22'0 0.0
2017-Jan-12 19:33N 38°08' E 013°22'0 0.0
2017-Jan-12 18:33N 38°08' E 013°22'9 9.1
2017-Jan-12 17:33N 38°17' E 013°21'2422.7
2017-Jan-12 16:31N 38°37' E 013°05'31022.2
2017-Jan-12 02:33N 43°03' E 009°35'2221.6
2017-Jan-12 01:33N 43°24' E 009°25'2222.0
2017-Jan-12 00:33N 43°45' E 009°16'2222.1
2017-Jan-11 23:33N 44°05' E 009°05'2019.8
2017-Jan-11 22:34N 44°24' E 008°55'1 0.6
2017-Jan-11 21:32N 44°25' E 008°55'0 0.0
2017-Jan-11 20:23N 44°25' E 008°55'0 0.0
2017-Jan-11 19:29N 44°25' E 008°55'0 0.0
2017-Jan-11 18:33N 44°25' E 008°55'1212.2
2017-Jan-11 17:33N 44°14' E 009°02'2222.6
2017-Jan-11 16:33N 43°53' E 009°13'2222.5
2017-Jan-11 15:34N 43°32' E 009°24'2222.3
2017-Jan-11 14:33N 43°11' E 009°35'32122.9
2017-Jan-11 00:33N 38°33' E 013°07'2424.1
2017-Jan-10 23:34N 38°13' E 013°24'6 5.7
2017-Jan-10 22:33N 38°08' E 013°22'0 0.0
2017-Jan-10 21:33N 38°08' E 013°22'0 0.0
2017-Jan-10 20:32N 38°08' E 013°22'0 0.0
2017-Jan-10 19:32N 38°08' E 013°22'0 0.0
2017-Jan-10 18:31N 38°08' E 013°22'3 2.7
2017-Jan-10 17:33N 38°10' E 013°24'2221.6
2017-Jan-10 16:33N 38°29' E 013°11'32022.2
2017-Jan-10 02:10N 43°03' E 009°35'1321.7
2017-Jan-10 01:33N 43°16' E 009°29'2222.3
2017-Jan-10 00:33N 43°37' E 009°19'2221.8
2017-Jan-09 23:33N 43°57' E 009°09'2222.0
2017-Jan-09 22:33N 44°18' E 008°59'7 6.9
2017-Jan-09 21:33N 44°25' E 008°55'0 0.0
2017-Jan-09 20:33N 44°25' E 008°55'0 0.0
2017-Jan-09 19:33N 44°25' E 008°55'0 0.0
2017-Jan-09 18:33N 44°25' E 008°55'0 0.0
2017-Jan-09 17:33N 44°25' E 008°55'0 0.0
2017-Jan-09 16:33N 44°25' E 008°55'0 0.0
2017-Jan-09 15:33N 44°25' E 008°55'0 0.0
2017-Jan-09 14:33N 44°25' E 008°55'0 0.0
2017-Jan-09 13:33N 44°25' E 008°55'0 0.0
2017-Jan-09 12:33N 44°25' E 008°55'0 0.0
2017-Jan-09 11:33N 44°25' E 008°55'0 0.0
2017-Jan-09 10:33N 44°25' E 008°55'0 0.0
2017-Jan-09 09:33N 44°25' E 008°55'0 0.0
2017-Jan-09 08:33N 44°25' E 008°55'0 0.0
2017-Jan-09 07:33N 44°25' E 008°55'0 0.0
2017-Jan-09 06:33N 44°25' E 008°55'0 0.0
2017-Jan-09 05:33N 44°25' E 008°55'0 0.0
2017-Jan-09 04:33N 44°25' E 008°55'0 0.0
2017-Jan-09 03:33N 44°25' E 008°55'0 0.0
2017-Jan-09 02:33N 44°25' E 008°55'0 0.0
2017-Jan-09 01:33N 44°25' E 008°55'0 0.0
2017-Jan-09 00:33N 44°25' E 008°55'  
Track history (hours):
 
Tides and Currents Weather Stations Pressure Air Temp Water Temp Dewpoint Dewpoint Depression Visibility Wind Speed Wind Dir Waves Ship Positions

La Suprema

Last reported at 2017-Jan-18 23:33 UTC. Time now 2017-Jan-19 10:43 UTC.
Position N 38°33' E 013°08'.

Length 211 m; draft 7.3 m.

Type: Passenger vessel. MMSI: 247083700.

Date/timePositionNaut miles runAvg speedWind from/ knotsBaromVisibWave heightAir tempDewpointWater temp
2017-Jan-18 23:33N 38°33' E 013°08'2424.4
2017-Jan-18 22:34N 38°12' E 013°24'5 4.8
2017-Jan-18 21:31N 38°08' E 013°22'0 0.0
2017-Jan-18 20:31N 38°08' E 013°22'0 0.0
2017-Jan-18 19:31N 38°08' E 013°22'0 0.0
2017-Jan-18 18:33N 38°08' E 013°22'0 0.2
2017-Jan-18 17:33N 38°08' E 013°22'1211.7
2017-Jan-18 16:34N 38°19' E 013°19'29023.8
2017-Jan-18 04:21N 42°34' E 010°16'4324.0
2017-Jan-18 02:34N 43°13' E 009°53'2524.5
2017-Jan-18 01:34N 43°34' E 009°35'2524.8
2017-Jan-18 00:33N 43°55' E 009°16'2525.1
2017-Jan-17 23:34N 44°17' E 009°00'8 7.8
2017-Jan-17 22:29N 44°25' E 008°55'0 0.0
2017-Jan-17 21:32N 44°25' E 008°55'0 0.0
2017-Jan-17 20:32N 44°25' E 008°55'0 0.0
2017-Jan-17 19:22N 44°25' E 008°55'1 1.1
2017-Jan-17 18:34N 44°24' E 008°56'1918.7
2017-Jan-17 17:33N 44°08' E 009°10'2221.6
2017-Jan-17 16:34N 43°49' E 009°25'2221.7
2017-Jan-17 15:34N 43°31' E 009°40'2322.8
2017-Jan-17 14:33N 43°13' E 009°59'33323.7
2017-Jan-17 00:33N 38°17' E 013°21'10 4.4
2017-Jan-16 22:21N 38°08' E 013°22'0 0.0
2017-Jan-16 21:26N 38°08' E 013°22'0 0.0
2017-Jan-16 20:33N 38°08' E 013°22'7 6.7
2017-Jan-16 19:33N 38°14' E 013°23'10812.9
2017-Jan-16 11:11N 36°28' E 013°46'1523.9
2017-Jan-16 10:34N 36°19' E 014°01'2423.6
2017-Jan-16 09:34N 36°05' E 014°24'15911.0
2017-Jan-15 19:05N 38°11' E 012°24'3019.6
2017-Jan-15 17:33N 38°15' E 013°01'1818.2
2017-Jan-15 16:33N 38°12' E 013°24'5 4.8
2017-Jan-15 15:33N 38°08' E 013°22'0 0.0
2017-Jan-15 14:33N 38°08' E 013°22'0 0.3
2017-Jan-15 13:34N 38°08' E 013°22'1716.8
2017-Jan-15 12:31N 38°24' E 013°15'32625.2
2017-Jan-14 23:33N 43°05' E 009°35'2525.1
2017-Jan-14 22:34N 43°29' E 009°26'2525.1
2017-Jan-14 21:34N 43°52' E 009°12'2525.2
2017-Jan-14 20:34N 44°16' E 008°60'10 9.0
2017-Jan-14 19:30N 44°25' E 008°55'0 0.0
2017-Jan-14 18:32N 44°25' E 008°55'0 0.0
2017-Jan-14 17:29N 44°25' E 008°55'0 0.0
2017-Jan-14 16:25N 44°25' E 008°55'0 0.0
2017-Jan-14 15:31N 44°25' E 008°55'3 3.4
2017-Jan-14 14:33N 44°22' E 008°58'2221.8
2017-Jan-14 13:34N 44°02' E 009°09'2222.2
2017-Jan-14 12:33N 43°41' E 009°20'2221.8
2017-Jan-14 11:33N 43°20' E 009°30'33323.8
2017-Jan-13 21:33N 38°29' E 013°03'2423.9
2017-Jan-13 20:34N 38°12' E 013°24'4 4.4
2017-Jan-13 19:33N 38°08' E 013°22'0 0.0
2017-Jan-13 18:33N 38°08' E 013°22'0 0.0
2017-Jan-13 17:33N 38°08' E 013°22'0 0.0
2017-Jan-13 16:33N 38°08' E 013°22'0 0.0
2017-Jan-13 15:33N 38°08' E 013°22'0 0.0
2017-Jan-13 14:33N 38°08' E 013°22'0 0.0
2017-Jan-13 13:33N 38°08' E 013°22'0 0.0
2017-Jan-13 12:33N 38°08' E 013°22'0 0.0
2017-Jan-13 11:33N 38°08' E 013°22'0 0.0
2017-Jan-13 10:33N 38°08' E 013°22'0 0.0
2017-Jan-13 09:33N 38°08' E 013°22'0 0.0
2017-Jan-13 08:33N 38°08' E 013°22'0 0.0
2017-Jan-13 07:33N 38°08' E 013°22'0 0.0
2017-Jan-13 06:33N 38°08' E 013°22'0 0.0
2017-Jan-13 05:33N 38°08' E 013°22'0 0.0
2017-Jan-13 04:33N 38°08' E 013°22'0 0.0
2017-Jan-13 03:33N 38°08' E 013°22'0 0.0
2017-Jan-13 02:33N 38°08' E 013°22'0 0.0
2017-Jan-13 01:33N 38°08' E 013°22'0 0.0
2017-Jan-13 00:33N 38°08' E 013°22'0 0.0
2017-Jan-12 23:33N 38°08' E 013°22'0 0.0
2017-Jan-12 22:33N 38°08' E 013°22'0 0.0
2017-Jan-12 21:33N 38°08' E 013°22'0 0.0
2017-Jan-12 20:33N 38°08' E 013°22'0 0.0
2017-Jan-12 19:33N 38°08' E 013°22'0 0.0
2017-Jan-12 18:33N 38°08' E 013°22'9 9.1
2017-Jan-12 17:33N 38°17' E 013°21'2422.7
2017-Jan-12 16:31N 38°37' E 013°05'31022.2
2017-Jan-12 02:33N 43°03' E 009°35'2221.6
2017-Jan-12 01:33N 43°24' E 009°25'2222.0
2017-Jan-12 00:33N 43°45' E 009°16'2222.1
2017-Jan-11 23:33N 44°05' E 009°05'2019.8
2017-Jan-11 22:34N 44°24' E 008°55'1 0.6
2017-Jan-11 21:32N 44°25' E 008°55'0 0.0
2017-Jan-11 20:23N 44°25' E 008°55'0 0.0
2017-Jan-11 19:29N 44°25' E 008°55'0 0.0
2017-Jan-11 18:33N 44°25' E 008°55'1212.2
2017-Jan-11 17:33N 44°14' E 009°02'2222.6
2017-Jan-11 16:33N 43°53' E 009°13'2222.5
2017-Jan-11 15:34N 43°32' E 009°24'2222.3
2017-Jan-11 14:33N 43°11' E 009°35'32122.9
2017-Jan-11 00:33N 38°33' E 013°07'2424.1
2017-Jan-10 23:34N 38°13' E 013°24'6 5.7
2017-Jan-10 22:33N 38°08' E 013°22'0 0.0
2017-Jan-10 21:33N 38°08' E 013°22'0 0.0
2017-Jan-10 20:32N 38°08' E 013°22'0 0.0
2017-Jan-10 19:32N 38°08' E 013°22'0 0.0
2017-Jan-10 18:31N 38°08' E 013°22'3 2.7
2017-Jan-10 17:33N 38°10' E 013°24'2221.6
2017-Jan-10 16:33N 38°29' E 013°11'32022.2
2017-Jan-10 02:10N 43°03' E 009°35'1321.7
2017-Jan-10 01:33N 43°16' E 009°29'2222.3
2017-Jan-10 00:33N 43°37' E 009°19'2221.8
2017-Jan-09 23:33N 43°57' E 009°09'2222.0
2017-Jan-09 22:33N 44°18' E 008°59'7 6.9
2017-Jan-09 21:33N 44°25' E 008°55'0 0.0
2017-Jan-09 20:33N 44°25' E 008°55'0 0.0
2017-Jan-09 19:33N 44°25' E 008°55'0 0.0
2017-Jan-09 18:33N 44°25' E 008°55'0 0.0
2017-Jan-09 17:33N 44°25' E 008°55'0 0.0
2017-Jan-09 16:33N 44°25' E 008°55'0 0.0
2017-Jan-09 15:33N 44°25' E 008°55'0 0.0
2017-Jan-09 14:33N 44°25' E 008°55'0 0.0
2017-Jan-09 13:33N 44°25' E 008°55'0 0.0
2017-Jan-09 12:33N 44°25' E 008°55'0 0.0
2017-Jan-09 11:33N 44°25' E 008°55'0 0.0
2017-Jan-09 10:33N 44°25' E 008°55'0 0.0
2017-Jan-09 09:33N 44°25' E 008°55'0 0.0
2017-Jan-09 08:33N 44°25' E 008°55'0 0.0
2017-Jan-09 07:33N 44°25' E 008°55'0 0.0
2017-Jan-09 06:33N 44°25' E 008°55'0 0.0
2017-Jan-09 05:33N 44°25' E 008°55'0 0.0
2017-Jan-09 04:33N 44°25' E 008°55'0 0.0
2017-Jan-09 03:33N 44°25' E 008°55'0 0.0
2017-Jan-09 02:33N 44°25' E 008°55'0 0.0
2017-Jan-09 01:33N 44°25' E 008°55'0 0.0
2017-Jan-09 00:33N 44°25' E 008°55'  

Dump ship's entire track history